Aérodrome :
LOGIN :

S'inscrire | Disclaimer

   EN    FR    IT 

 










Légende :    VFR   VFR Marginal   IFR   IFR Intensif   IFR Très Intensif
Visi : 
Plafond : 
>= 8 km
>= 3000ft
5 à 8 km
1000 à 3000 ft
1500m à 5 km
500 à 1000 ft
800 à 1500m
200 à 500 ft
< 800m
< 200 ft
Symboles :   Orages  Brouillard  Fortes neiges  Fortes précipitations  Vent > 20 kt
SIGMETs :   Divers  Orages  Givrage  Turbulence  Onde Orograph.  Cendres Volcan.






- Altitude de l'aérodrome : 1 ft


EGCK - Caernarfon

DERNIER METAR :
  • 251320Z 29009KT 250V310 9999 FEW020 SCT034 10/05 Q1014

METARs EXPIRÉS :
  • 251250Z 30008KT 9999 SCT035 10/05 Q1013
  • 251220Z 29009KT 9999 FEW022 SCT034 09/04 Q1013
  • 251150Z 30009KT 9999 FEW027 SCT035 09/05 Q1013
  • 251120Z 30010KT 9999 FEW021 SCT034 10/06 Q1013
  • 251050Z 24005KT 190V330 9999 FEW024 BKN037 09/06 Q1013

TAF TAF EGCK
Valide du 25 à 12h jusqu'au 25 à 21h UTC


251102Z 2512/2521 26004KT 9999 SCT020
PROB40
TEMPO 2518/2521 7000 SHRA BKN014



MET'MAP, la Météo Aéronautique d'un coup d'oeil ! - Copyright ORBIFLY Décembre 2007 - Disclaimer

ORBIFLY MET'MAP TEAM :

Programmation & Développement : Alexandra Zaïnal
Sur une idée originale de : Baudouin d'Aumeries
Assistance à la programmation : Marc-Olivier Méhu
Soutien technique & logistique : Manuel Goepfert

Contact : metmap@orbifly.com




SOURCES & CREDITS :

   NOAA